Time;durP1;ratioP1;P1;durP2;ratioP2;P2;SDS_P1;SDS_P2;PMS_P1;PMS_P2;Temp;Humidity;BMP_temperature;BMP_pressure;BME280_temperature;BME280_humidity;BME280_pressure;Samples;Min_cycle;Max_cycle;Signal;HPM_P1;HPM_P2
2023/12/28 00:00:59;;;;;;;4.60;1.60;;;10.40;94.90;;;;;;5000528;28;20034;-84
2023/12/28 00:03:24;;;;;;;5.40;1.57;;;10.40;95.00;;;;;;4983362;28;20045;-85
2023/12/28 00:05:50;;;;;;;3.57;1.50;;;10.40;95.10;;;;;;5001512;28;20022;-85
2023/12/28 00:08:15;;;;;;;4.32;1.50;;;10.40;95.20;;;;;;4984355;28;20015;-85
2023/12/28 00:10:41;;;;;;;3.53;1.67;;;10.40;95.30;;;;;;4999422;28;20022;-85
2023/12/28 00:13:07;;;;;;;3.58;1.38;;;10.40;95.40;;;;;;4983990;28;20065;-85
2023/12/28 00:15:33;;;;;;;5.70;1.85;;;10.40;95.50;;;;;;4983281;28;20103;-84
2023/12/28 00:17:58;;;;;;;5.65;1.85;;;10.40;95.60;;;;;;4983655;28;20027;-84
2023/12/28 00:20:24;;;;;;;4.93;1.65;;;10.40;95.80;;;;;;4983238;28;20447;-84
2023/12/28 00:22:50;;;;;;;3.35;1.48;;;10.40;96.00;;;;;;4983573;28;20061;-84
2023/12/28 00:25:15;;;;;;;4.38;1.50;;;10.30;96.10;;;;;;4984783;28;20262;-84
2023/12/28 00:27:41;;;;;;;5.60;1.67;;;10.40;96.20;;;;;;4986911;28;20074;-84
2023/12/28 00:30:07;;;;;;;4.43;1.80;;;10.40;96.30;;;;;;4987934;28;20025;-84
2023/12/28 00:32:33;;;;;;;3.00;1.37;;;10.40;96.50;;;;;;4988051;28;20037;-84
2023/12/28 00:34:58;;;;;;;3.90;1.35;;;10.40;96.60;;;;;;4988717;28;20442;-83
2023/12/28 00:37:37;;;;;;;8.07;2.53;;;10.40;96.80;;;;;;4988625;28;20082;-83
2023/12/28 00:40:04;;;;;;;6.47;1.88;;;10.40;96.90;;;;;;4987076;28;20354;-83
2023/12/28 00:42:29;;;;;;;4.47;1.55;;;10.40;97.10;;;;;;4986517;28;20037;-83
2023/12/28 00:44:55;;;;;;;5.88;1.83;;;10.40;97.20;;;;;;4986352;28;20038;-84
2023/12/28 00:47:21;;;;;;;5.10;1.58;;;10.40;97.40;;;;;;4987267;28;20020;-84
2023/12/28 00:49:46;;;;;;;4.55;1.83;;;10.40;97.50;;;;;;5002317;28;20041;-84
2023/12/28 00:52:12;;;;;;;4.38;1.70;;;10.40;97.60;;;;;;4986536;28;20014;-84
2023/12/28 00:54:38;;;;;;;4.05;1.55;;;10.40;97.70;;;;;;4986127;28;20478;-84
2023/12/28 00:57:04;;;;;;;6.67;1.80;;;10.40;97.80;;;;;;4986300;28;20030;-84
2023/12/28 00:59:30;;;;;;;4.68;1.52;;;10.50;97.90;;;;;;4986431;28;20093;-84
2023/12/28 01:01:56;;;;;;;7.82;2.38;;;10.50;97.90;;;;;;4986025;28;20030;-84
2023/12/28 01:04:25;;;;;;;3.15;1.30;;;10.50;98.00;;;;;;4986752;28;20038;-84
2023/12/28 01:06:52;;;;;;;4.38;1.70;;;10.50;98.10;;;;;;4985798;28;20026;-84
2023/12/28 01:09:18;;;;;;;4.13;1.63;;;10.50;98.10;;;;;;4987029;28;20026;-85
2023/12/28 01:11:44;;;;;;;5.03;1.63;;;10.50;98.20;;;;;;4985473;28;20026;-84
2023/12/28 01:14:10;;;;;;;6.95;1.83;;;10.50;98.20;;;;;;4986655;28;20034;-84
2023/12/28 01:16:35;;;;;;;4.03;1.50;;;10.60;98.30;;;;;;4985707;28;20092;-84
2023/12/28 01:19:01;;;;;;;3.83;1.83;;;10.50;98.40;;;;;;4986062;28;20026;-84
2023/12/28 01:21:28;;;;;;;4.03;1.73;;;10.50;98.50;;;;;;4986458;28;20030;-84
2023/12/28 01:23:54;;;;;;;3.50;1.42;;;10.50;98.50;;;;;;4985335;28;20467;-84
2023/12/28 01:26:20;;;;;;;4.72;1.75;;;10.50;98.60;;;;;;4986257;28;20095;-84
2023/12/28 01:28:46;;;;;;;6.45;1.83;;;10.50;98.70;;;;;;4985896;28;20086;-84
2023/12/28 01:31:12;;;;;;;5.80;2.08;;;10.50;98.80;;;;;;5004189;28;20030;-84
2023/12/28 01:33:38;;;;;;;3.42;1.63;;;10.50;98.90;;;;;;4985854;28;20019;-84
2023/12/28 01:36:17;;;;;;;4.65;2.17;;;10.40;98.90;;;;;;5001452;28;20042;-84
2023/12/28 01:38:43;;;;;;;3.63;1.77;;;10.40;99.10;;;;;;4986689;28;20046;-83
2023/12/28 01:41:09;;;;;;;5.47;1.75;;;10.40;99.30;;;;;;4985396;28;20025;-84
2023/12/28 01:43:35;;;;;;;3.42;1.52;;;10.40;99.50;;;;;;4986255;28;20034;-84
2023/12/28 01:46:01;;;;;;;6.18;1.90;;;10.40;99.70;;;;;;5003016;28;20019;-84
2023/12/28 01:48:28;;;;;;;5.90;1.97;;;10.40;99.80;;;;;;4985712;28;20022;-84
2023/12/28 01:50:55;;;;;;;5.13;1.77;;;10.40;99.90;;;;;;4985445;28;20045;-84
2023/12/28 01:53:21;;;;;;;4.35;1.90;;;10.40;99.90;;;;;;4985004;28;20026;-84
2023/12/28 01:55:46;;;;;;;4.57;1.92;;;10.40;99.90;;;;;;4985635;28;20037;-84
2023/12/28 01:58:12;;;;;;;7.57;1.60;;;10.40;99.90;;;;;;4968836;28;20030;-84
2023/12/28 02:00:38;;;;;;;6.63;2.03;;;10.40;99.90;;;;;;4986265;28;20029;-84
2023/12/28 02:03:06;;;;;;;6.28;2.10;;;10.40;99.90;;;;;;4984382;28;20026;-83
2023/12/28 02:05:33;;;;;;;5.30;2.28;;;10.40;99.90;;;;;;4985587;28;20053;-84
2023/12/28 02:08:00;;;;;;;6.18;2.45;;;10.30;99.90;;;;;;4984923;28;20014;-84
2023/12/28 02:10:26;;;;;;;3.27;1.57;;;10.30;99.90;;;;;;4985276;28;20117;-84
2023/12/28 02:12:53;;;;;;;5.25;1.73;;;10.30;99.90;;;;;;4985121;28;20029;-83
2023/12/28 02:15:19;;;;;;;6.05;1.70;;;10.30;99.90;;;;;;5000857;28;20019;-83
2023/12/28 02:17:55;;;;;;;6.55;1.85;;;10.30;99.90;;;;;;4985626;28;20030;-84
2023/12/28 02:20:21;;;;;;;6.10;2.00;;;10.20;99.90;;;;;;4984683;28;20022;-85
2023/12/28 02:22:47;;;;;;;5.30;1.70;;;10.20;99.90;;;;;;5001195;28;20018;-85
2023/12/28 02:25:13;;;;;;;4.40;1.67;;;10.20;99.90;;;;;;5001991;28;20034;-86
2023/12/28 02:27:46;;;;;;;4.50;1.93;;;10.20;99.90;;;;;;4984757;28;20026;-85
2023/12/28 02:30:14;;;;;;;7.18;2.17;;;10.20;99.90;;;;;;4985350;28;20482;-84
2023/12/28 02:32:43;;;;;;;8.87;2.13;;;10.20;99.90;;;;;;5001885;28;20082;-85
2023/12/28 02:35:25;;;;;;;6.57;2.10;;;10.10;99.90;;;;;;4984282;28;20054;-84
2023/12/28 02:37:54;;;;;;;5.43;2.08;;;10.20;99.90;;;;;;5001708;28;20053;-84
2023/12/28 02:40:22;;;;;;;4.25;1.65;;;10.20;99.90;;;;;;4984765;28;20061;-84
2023/12/28 02:42:47;;;;;;;6.45;1.92;;;10.20;99.90;;;;;;4985055;28;20102;-84
2023/12/28 02:45:13;;;;;;;5.38;1.60;;;10.20;99.90;;;;;;4984341;28;20065;-84
2023/12/28 02:47:39;;;;;;;7.17;2.03;;;10.20;99.90;;;;;;4984751;28;20023;-84
2023/12/28 02:50:06;;;;;;;6.97;1.73;;;10.20;99.90;;;;;;4984286;28;20031;-83
2023/12/28 02:52:31;;;;;;;4.18;1.50;;;10.20;99.90;;;;;;4984730;28;20026;-83
2023/12/28 02:54:58;;;;;;;6.17;1.47;;;10.20;99.90;;;;;;4984301;28;20113;-82
2023/12/28 02:57:24;;;;;;;7.67;1.90;;;10.20;99.90;;;;;;5000816;28;20041;-83
2023/12/28 02:59:50;;;;;;;5.68;1.60;;;10.20;99.90;;;;;;4984346;28;20019;-83
2023/12/28 03:02:15;;;;;;;7.83;1.83;;;10.20;99.90;;;;;;4984260;28;20414;-84
2023/12/28 03:04:41;;;;;;;5.63;1.55;;;10.20;99.90;;;;;;4984776;28;20039;-83
2023/12/28 03:07:08;;;;;;;7.30;1.92;;;10.20;99.90;;;;;;4983583;28;20026;-82
2023/12/28 03:09:34;;;;;;;5.93;1.73;;;10.20;99.90;;;;;;4984930;28;20015;-83
2023/12/28 03:12:00;;;;;;;7.57;1.83;;;10.20;99.90;;;;;;4983987;28;20011;-83
2023/12/28 03:14:26;;;;;;;6.20;1.50;;;10.20;99.90;;;;;;4984361;28;20046;-83
2023/12/28 03:16:52;;;;;;;10.50;2.33;;;10.20;99.90;;;;;;4984365;28;20033;-84
2023/12/28 03:19:17;;;;;;;5.20;1.47;;;10.20;99.90;;;;;;5001973;28;20026;-84
2023/12/28 03:21:43;;;;;;;8.50;1.80;;;10.20;99.90;;;;;;4984449;28;20494;-83
2023/12/28 03:24:09;;;;;;;5.70;1.42;;;10.20;99.90;;;;;;4983826;28;20049;-83
2023/12/28 03:26:39;;;;;;;6.00;1.60;;;10.30;99.90;;;;;;4984779;28;20418;-83
2023/12/28 03:29:08;;;;;;;8.93;1.90;;;10.30;99.90;;;;;;4968170;28;20042;-83
2023/12/28 03:31:33;;;;;;;6.80;1.70;;;10.20;99.90;;;;;;4987624;28;20046;-84
2023/12/28 03:33:59;;;;;;;4.60;1.30;;;10.20;99.90;;;;;;4985871;28;20394;-83
2023/12/28 03:36:25;;;;;;;7.13;1.73;;;10.30;99.90;;;;;;4982801;28;20113;-83
2023/12/28 03:38:51;;;;;;;5.97;2.05;;;10.30;99.90;;;;;;4984133;28;20463;-83
2023/12/28 03:41:20;;;;;;;4.78;1.08;;;10.30;99.90;;;;;;4983773;28;20022;-83
2023/12/28 03:43:46;;;;;;;8.35;1.63;;;10.40;99.90;;;;;;4984437;28;20033;-83
2023/12/28 03:46:13;;;;;;;6.77;1.70;;;10.40;99.90;;;;;;4983641;28;20018;-83
2023/12/28 03:48:39;;;;;;;9.43;2.40;;;10.40;99.90;;;;;;4984106;28;20030;-83
2023/12/28 03:51:05;;;;;;;6.82;1.40;;;10.50;99.90;;;;;;4983159;28;20023;-84
2023/12/28 03:53:31;;;;;;;9.13;1.73;;;10.50;99.90;;;;;;4983599;28;20026;-84
2023/12/28 03:55:59;;;;;;;6.38;2.17;;;10.50;99.90;;;;;;4984226;28;20034;-84
2023/12/28 03:58:25;;;;;;;5.68;1.20;;;10.60;99.90;;;;;;4983586;28;20031;-84
2023/12/28 04:00:52;;;;;;;6.60;1.30;;;10.60;99.90;;;;;;4986517;28;20409;-82
2023/12/28 04:03:17;;;;;;;8.38;1.63;;;10.60;99.90;;;;;;4987472;28;20034;-84
2023/12/28 04:05:43;;;;;;;4.82;1.02;;;10.60;99.90;;;;;;4987459;28;20057;-83
2023/12/28 04:08:09;;;;;;;9.13;1.50;;;10.60;99.90;;;;;;4987153;28;20019;-83
2023/12/28 04:10:37;;;;;;;7.40;1.88;;;10.60;99.90;;;;;;4987482;28;20042;-83
2023/12/28 04:13:03;;;;;;;6.97;1.30;;;10.60;99.90;;;;;;4987666;28;20061;-83
2023/12/28 04:15:29;;;;;;;7.05;1.45;;;10.60;99.90;;;;;;4999701;28;20026;-84
2023/12/28 04:17:55;;;;;;;8.07;1.27;;;10.60;99.90;;;;;;5005543;28;20025;-84
2023/12/28 04:20:20;;;;;;;6.22;1.40;;;10.60;99.90;;;;;;4986277;28;20018;-83
2023/12/28 04:22:46;;;;;;;5.18;1.40;;;10.60;99.90;;;;;;4987230;28;20096;-83
2023/12/28 04:25:12;;;;;;;5.55;1.30;;;10.60;99.90;;;;;;4986636;28;20038;-83
2023/12/28 04:27:38;;;;;;;6.70;1.70;;;10.60;99.90;;;;;;4987110;28;20101;-84
2023/12/28 04:30:05;;;;;;;4.45;1.10;;;10.60;99.90;;;;;;4987054;28;20023;-83
2023/12/28 04:32:32;;;;;;;10.18;1.50;;;10.70;99.90;;;;;;4986933;28;20026;-84
2023/12/28 04:34:57;;;;;;;10.98;1.52;;;10.60;99.90;;;;;;5004053;28;20038;-84
2023/12/28 04:37:23;;;;;;;6.47;1.63;;;10.70;99.90;;;;;;4986306;28;20022;-84
2023/12/28 04:39:49;;;;;;;5.47;1.42;;;10.70;99.90;;;;;;4987437;28;20018;-84
2023/12/28 04:42:15;;;;;;;8.75;1.95;;;10.60;99.90;;;;;;4986673;28;20026;-83
2023/12/28 04:44:40;;;;;;;6.75;1.38;;;10.60;99.90;;;;;;4987181;28;20050;-83
2023/12/28 04:47:06;;;;;;;7.68;1.52;;;10.60;99.90;;;;;;4986547;28;20094;-83
2023/12/28 04:49:32;;;;;;;9.23;1.25;;;10.60;99.90;;;;;;5003980;28;20113;-84
2023/12/28 04:51:58;;;;;;;11.70;1.35;;;10.60;99.90;;;;;;5003213;28;20026;-83
2023/12/28 04:54:23;;;;;;;9.93;1.48;;;10.60;99.90;;;;;;5004074;28;20030;-83
2023/12/28 04:56:49;;;;;;;11.13;1.58;;;10.60;99.90;;;;;;4987140;28;20091;-83
2023/12/28 04:59:15;;;;;;;12.88;1.17;;;10.60;99.90;;;;;;4986356;28;20061;-83
2023/12/28 05:01:44;;;;;;;7.32;1.48;;;10.60;99.90;;;;;;4986700;28;20019;-83
2023/12/28 05:04:10;;;;;;;10.30;1.23;;;10.60;99.90;;;;;;4986381;28;20044;-83
2023/12/28 05:06:36;;;;;;;11.53;1.67;;;10.70;99.90;;;;;;4986504;28;20121;-84
2023/12/28 05:09:02;;;;;;;10.95;1.77;;;10.70;99.90;;;;;;4986638;28;20023;-84
2023/12/28 05:11:27;;;;;;;11.68;1.52;;;10.70;99.90;;;;;;4986034;28;20048;-82
2023/12/28 05:13:53;;;;;;;13.18;1.77;;;10.70;99.90;;;;;;5005010;28;20035;-83
2023/12/28 05:16:20;;;;;;;7.85;1.33;;;10.80;99.90;;;;;;4990378;28;20025;-84
2023/12/28 05:18:46;;;;;;;15.88;1.80;;;10.80;99.90;;;;;;5005694;28;20021;-83
2023/12/28 05:21:12;;;;;;;10.13;1.50;;;10.80;99.90;;;;;;5005162;28;20018;-83
2023/12/28 05:23:38;;;;;;;11.40;1.80;;;10.80;99.90;;;;;;5005484;28;20137;-81
2023/12/28 05:26:04;;;;;;;12.95;1.60;;;10.80;99.90;;;;;;5006024;28;20029;-82
2023/12/28 05:28:30;;;;;;;10.23;1.90;;;10.90;99.90;;;;;;5005298;28;20026;-82
2023/12/28 05:30:56;;;;;;;11.07;1.80;;;10.90;99.90;;;;;;5006069;28;20041;-82
2023/12/28 05:33:22;;;;;;;13.15;2.22;;;10.90;99.80;;;;;;5004474;28;20029;-84
2023/12/28 05:35:48;;;;;;;9.68;1.63;;;10.90;99.70;;;;;;5001815;28;20047;-84
2023/12/28 05:38:14;;;;;;;13.27;1.80;;;10.90;99.70;;;;;;5001580;28;20105;-83
2023/12/28 05:40:39;;;;;;;9.65;1.73;;;11.00;99.60;;;;;;5002285;28;20057;-84
2023/12/28 05:43:05;;;;;;;13.00;1.77;;;11.00;99.30;;;;;;5002309;28;20038;-84
2023/12/28 05:45:31;;;;;;;10.27;1.23;;;11.00;99.10;;;;;;5001618;28;20117;-83
2023/12/28 05:47:57;;;;;;;10.40;1.85;;;11.00;99.00;;;;;;5002019;28;20026;-83
2023/12/28 05:50:23;;;;;;;10.52;1.95;;;11.10;98.80;;;;;;5001784;28;20146;-84
2023/12/28 05:52:48;;;;;;;11.13;1.65;;;11.00;98.70;;;;;;5002230;28;20053;-84
2023/12/28 05:55:14;;;;;;;11.50;1.40;;;11.10;98.40;;;;;;5001222;28;20029;-84
2023/12/28 05:57:40;;;;;;;10.45;1.20;;;11.10;98.40;;;;;;5001940;28;20466;-84
2023/12/28 06:00:06;;;;;;;9.52;2.58;;;11.10;98.10;;;;;;5003179;28;20057;-83
2023/12/28 06:02:32;;;;;;;10.48;2.00;;;11.10;98.10;;;;;;5001578;28;20035;-83
2023/12/28 06:04:58;;;;;;;9.15;1.80;;;11.20;97.90;;;;;;5001678;28;20045;-82
2023/12/28 06:07:23;;;;;;;8.98;1.52;;;11.10;97.70;;;;;;5001211;28;20046;-83
2023/12/28 06:09:49;;;;;;;12.23;1.70;;;11.20;97.80;;;;;;5002040;28;20061;-83
2023/12/28 06:12:15;;;;;;;12.57;1.95;;;11.20;97.50;;;;;;5000913;28;20034;-82
2023/12/28 06:14:41;;;;;;;7.13;1.30;;;11.20;97.50;;;;;;5001715;28;20022;-82
2023/12/28 06:17:07;;;;;;;16.27;2.20;;;11.20;97.40;;;;;;5001199;28;20049;-82
2023/12/28 06:19:33;;;;;;;12.00;2.05;;;11.20;97.30;;;;;;5001575;28;20033;-82
2023/12/28 06:21:58;;;;;;;12.93;2.25;;;11.20;97.10;;;;;;5001786;28;20367;-83
2023/12/28 06:24:24;;;;;;;8.05;1.40;;;11.20;97.10;;;;;;5000747;28;20042;-83
2023/12/28 06:26:50;;;;;;;15.90;2.00;;;11.30;97.10;;;;;;5002024;28;20018;-83
2023/12/28 06:29:16;;;;;;;15.00;1.90;;;11.30;97.00;;;;;;5002241;28;20054;-83
2023/12/28 06:31:41;;;;;;;10.65;1.60;;;11.30;96.90;;;;;;5002500;28;20042;-83
2023/12/28 06:34:07;;;;;;;16.15;1.77;;;11.30;97.00;;;;;;5000628;28;20118;-83
2023/12/28 06:36:33;;;;;;;11.95;1.58;;;11.30;96.90;;;;;;5000473;28;20046;-83
2023/12/28 06:38:59;;;;;;;8.55;2.22;;;11.20;96.80;;;;;;5001153;28;20491;-83
2023/12/28 06:41:26;;;;;;;12.07;1.60;;;11.30;96.80;;;;;;5001012;28;20030;-83
2023/12/28 06:43:52;;;;;;;12.65;2.08;;;11.30;96.80;;;;;;5001287;28;20034;-83
2023/12/28 06:46:18;;;;;;;14.65;1.58;;;11.30;96.70;;;;;;5000426;28;20057;-84
2023/12/28 06:48:46;;;;;;;12.20;1.80;;;11.30;96.60;;;;;;5000731;28;20085;-84
2023/12/28 06:51:19;;;;;;;10.82;2.15;;;11.30;96.50;;;;;;5000856;28;20474;-83
2023/12/28 06:53:46;;;;;;;9.33;1.70;;;11.30;96.60;;;;;;5000749;28;20018;-83
2023/12/28 06:56:11;;;;;;;12.02;1.45;;;11.30;96.50;;;;;;5001164;28;20030;-83
2023/12/28 06:58:37;;;;;;;10.93;1.75;;;11.30;96.50;;;;;;5000659;28;20033;-83
2023/12/28 07:01:04;;;;;;;14.70;1.55;;;11.30;96.50;;;;;;5000670;28;20025;-83
2023/12/28 07:03:32;;;;;;;10.27;2.30;;;11.30;96.40;;;;;;5000345;28;20025;-83
2023/12/28 07:06:03;;;;;;;15.63;2.17;;;11.30;96.30;;;;;;5000592;28;20014;-83
2023/12/28 07:08:28;;;;;;;7.53;1.83;;;11.30;96.30;;;;;;5000281;28;20030;-82
2023/12/28 07:10:54;;;;;;;11.90;1.63;;;11.30;96.40;;;;;;5000663;28;20053;-83
2023/12/28 07:13:20;;;;;;;13.63;2.63;;;11.30;96.40;;;;;;5000998;28;20018;-83
2023/12/28 07:15:45;;;;;;;14.27;1.58;;;11.30;96.10;;;;;;4999738;28;20071;-83
2023/12/28 07:18:12;;;;;;;13.20;2.03;;;11.30;96.10;;;;;;5000532;28;20121;-83
2023/12/28 07:20:38;;;;;;;15.07;3.00;;;11.40;96.00;;;;;;5000389;28;20031;-83
2023/12/28 07:23:03;;;;;;;15.10;2.15;;;11.40;96.00;;;;;;5000921;28;20053;-88
2023/12/28 07:25:29;;;;;;;12.85;2.22;;;11.30;95.80;;;;;;5001708;28;20466;-82
2023/12/28 07:27:55;;;;;;;15.65;2.28;;;11.30;95.70;;;;;;5000566;28;20033;-83
2023/12/28 07:30:20;;;;;;;14.27;2.67;;;11.30;96.00;;;;;;4999966;28;20126;-81
2023/12/28 07:32:46;;;;;;;16.65;3.03;;;11.40;95.70;;;;;;4999695;28;20047;-81
2023/12/28 07:35:12;;;;;;;13.15;1.90;;;11.30;95.60;;;;;;5003212;28;20038;-82
2023/12/28 07:37:38;;;;;;;11.88;1.75;;;11.30;95.70;;;;;;5004343;28;20085;-81
2023/12/28 07:40:04;;;;;;;11.70;1.85;;;11.30;95.80;;;;;;5006033;28;20494;-81
2023/12/28 07:42:30;;;;;;;9.75;1.48;;;11.30;95.90;;;;;;5004817;28;20023;-81
2023/12/28 07:44:55;;;;;;;17.52;2.28;;;11.30;95.90;;;;;;5005744;28;20042;-81
2023/12/28 07:47:21;;;;;;;13.50;2.08;;;11.20;95.80;;;;;;5004571;28;20088;-80
2023/12/28 07:49:47;;;;;;;21.75;3.67;;;11.20;95.80;;;;;;5004397;28;20157;-81
2023/12/28 07:52:13;;;;;;;16.58;2.78;;;11.20;95.90;;;;;;5004047;28;20090;-81
2023/12/28 07:54:38;;;;;;;11.18;1.80;;;11.20;95.80;;;;;;5020292;28;20050;-80
2023/12/28 07:57:04;;;;;;;11.70;1.83;;;11.10;95.80;;;;;;5005562;28;20082;-82
2023/12/28 07:59:30;;;;;;;15.95;1.83;;;11.10;95.90;;;;;;5003925;28;20038;-80
2023/12/28 08:01:56;;;;;;;12.85;1.50;;;11.20;95.90;;;;;;5004434;28;20014;-80
2023/12/28 08:04:22;;;;;;;18.88;2.20;;;11.20;95.90;;;;;;5003943;28;20402;-81
2023/12/28 08:06:48;;;;;;;13.20;2.13;;;11.20;95.70;;;;;;5003846;28;20030;-82
2023/12/28 08:09:14;;;;;;;16.20;2.35;;;11.20;95.70;;;;;;5004144;28;20033;-81
2023/12/28 08:11:39;;;;;;;14.43;1.73;;;11.20;95.60;;;;;;5003614;28;20029;-81
2023/12/28 08:14:05;;;;;;;14.35;2.17;;;11.30;95.60;;;;;;5004014;28;20019;-82
2023/12/28 08:16:31;;;;;;;17.52;2.80;;;11.30;95.70;;;;;;5003693;28;20759;-81
2023/12/28 08:18:57;;;;;;;16.15;2.38;;;11.30;95.60;;;;;;5003917;28;20022;-81
2023/12/28 08:21:22;;;;;;;14.18;1.80;;;11.30;95.50;;;;;;5002173;28;20022;-81
2023/12/28 08:23:48;;;;;;;13.48;2.05;;;11.30;95.60;;;;;;5003118;28;20386;-81
2023/12/28 08:26:14;;;;;;;10.50;1.48;;;11.40;95.50;;;;;;5004219;28;20026;-80
2023/12/28 08:28:40;;;;;;;9.10;1.90;;;11.40;95.50;;;;;;5000797;28;20010;-81
2023/12/28 08:31:08;;;;;;;16.30;1.70;;;11.40;95.50;;;;;;5003495;28;20063;-81
2023/12/28 08:33:35;;;;;;;13.48;1.73;;;11.40;95.50;;;;;;5002837;28;20050;-81
2023/12/28 08:36:03;;;;;;;15.95;2.22;;;11.40;95.50;;;;;;4999933;28;20438;-81
2023/12/28 08:38:28;;;;;;;16.10;2.65;;;11.50;95.30;;;;;;5002822;28;20050;-81
2023/12/28 08:40:54;;;;;;;9.75;1.52;;;11.50;95.20;;;;;;5002524;28;20027;-81
2023/12/28 08:43:20;;;;;;;12.45;2.45;;;11.50;95.20;;;;;;5003640;28;20086;-81
2023/12/28 08:45:45;;;;;;;10.68;1.55;;;11.60;95.10;;;;;;5002045;28;20068;-81
2023/12/28 08:48:11;;;;;;;14.05;1.88;;;11.60;95.20;;;;;;5004399;28;20082;-82
2023/12/28 08:50:37;;;;;;;19.15;2.10;;;11.60;95.20;;;;;;5002234;28;20018;-81
2023/12/28 08:53:02;;;;;;;16.33;2.42;;;11.60;94.90;;;;;;5003356;28;20104;-81
2023/12/28 08:55:28;;;;;;;10.85;1.58;;;11.60;94.80;;;;;;5002510;28;20027;-81
2023/12/28 08:57:54;;;;;;;15.15;3.35;;;11.60;94.70;;;;;;5003309;28;20053;-81
2023/12/28 09:00:19;;;;;;;15.23;1.83;;;11.60;94.70;;;;;;5002965;28;20026;-81
2023/12/28 09:02:45;;;;;;;15.88;2.22;;;11.60;94.70;;;;;;5002838;28;20033;-81
2023/12/28 09:05:11;;;;;;;10.45;1.42;;;11.60;94.60;;;;;;5002907;28;20034;-82
2023/12/28 09:07:42;;;;;;;18.98;3.33;;;11.60;94.70;;;;;;5002909;28;20057;-82
2023/12/28 09:10:10;;;;;;;16.23;2.10;;;11.60;94.60;;;;;;5002638;28;20026;-82
2023/12/28 09:12:35;;;;;;;13.40;2.47;;;11.60;94.60;;;;;;5002254;28;20084;-82
2023/12/28 09:15:01;;;;;;;19.02;2.35;;;11.60;94.50;;;;;;5002735;28;20030;-82
2023/12/28 09:17:26;;;;;;;12.40;1.67;;;11.60;94.50;;;;;;5004080;28;20134;-81
2023/12/28 09:19:52;;;;;;;13.77;1.65;;;11.60;94.50;;;;;;5002667;28;20026;-81
2023/12/28 09:22:18;;;;;;;14.20;1.70;;;11.60;94.40;;;;;;5003002;28;20045;-79
2023/12/28 09:24:43;;;;;;;16.23;2.53;;;11.60;94.60;;;;;;5002475;28;20069;-80
2023/12/28 09:27:09;;;;;;;13.23;2.20;;;11.60;94.50;;;;;;5002823;28;20034;-81
2023/12/28 09:29:35;;;;;;;16.33;1.95;;;11.60;94.50;;;;;;4999061;28;20023;-80
2023/12/28 09:32:01;;;;;;;12.63;2.35;;;11.60;94.40;;;;;;4994252;28;20104;-81
2023/12/28 09:34:28;;;;;;;14.18;2.08;;;11.60;94.60;;;;;;5002198;28;20525;-81
2023/12/28 09:36:54;;;;;;;14.50;2.10;;;11.70;94.40;;;;;;5019603;28;20093;-81
2023/12/28 09:39:20;;;;;;;11.75;2.28;;;11.70;94.30;;;;;;5004659;28;20026;-81
2023/12/28 09:41:55;;;;;;;11.45;1.55;;;11.70;94.00;;;;;;5005644;28;20025;-81
2023/12/28 09:44:22;;;;;;;14.88;1.60;;;11.80;93.90;;;;;;5005467;28;20118;-80
2023/12/28 09:46:48;;;;;;;19.02;2.00;;;11.80;94.00;;;;;;5005395;28;20056;-81
2023/12/28 09:49:14;;;;;;;21.77;4.00;;;11.80;93.70;;;;;;5005518;28;20545;-81
2023/12/28 09:51:40;;;;;;;21.40;2.40;;;11.80;93.70;;;;;;5004842;28;20045;-80
2023/12/28 09:54:06;;;;;;;13.13;1.38;;;11.80;93.80;;;;;;5004950;28;20033;-81
2023/12/28 09:56:33;;;;;;;13.18;1.60;;;11.90;93.90;;;;;;5005182;28;20033;-81
2023/12/28 09:58:59;;;;;;;13.00;1.65;;;12.00;94.00;;;;;;5004587;28;20537;-80
2023/12/28 10:01:25;;;;;;;11.75;1.35;;;12.20;93.70;;;;;;5005336;28;20017;-82
2023/12/28 10:03:51;;;;;;;13.88;1.95;;;12.30;93.20;;;;;;5004741;28;20040;-82
2023/12/28 10:06:16;;;;;;;14.85;1.67;;;12.40;92.80;;;;;;5005231;28;20399;-82
2023/12/28 10:08:49;;;;;;;11.57;2.45;;;12.30;92.80;;;;;;5004521;28;20021;-82
2023/12/28 10:11:18;;;;;;;18.60;1.85;;;12.30;92.70;;;;;;5004741;28;20433;-82
2023/12/28 10:13:44;;;;;;;15.23;2.08;;;12.30;92.50;;;;;;5004825;28;20513;-82
2023/12/28 10:16:12;;;;;;;16.15;1.98;;;12.20;92.50;;;;;;5004868;28;20525;-82
2023/12/28 10:18:42;;;;;;;16.13;2.10;;;12.20;92.40;;;;;;5004584;28;20026;-82
2023/12/28 10:21:08;;;;;;;16.65;2.00;;;12.20;92.40;;;;;;5004554;28;20083;-82
2023/12/28 10:23:34;;;;;;;17.25;2.55;;;12.20;92.60;;;;;;5004609;28;20049;-82
2023/12/28 10:26:00;;;;;;;13.52;2.10;;;12.20;92.30;;;;;;5004597;28;20028;-82
2023/12/28 10:28:26;;;;;;;14.73;2.10;;;12.20;92.20;;;;;;5003859;28;20084;-82
2023/12/28 10:30:58;;;;;;;15.00;1.50;;;12.20;92.20;;;;;;5022313;28;20022;-82
2023/12/28 10:33:23;;;;;;;12.57;1.48;;;12.20;92.10;;;;;;5002247;28;20025;-82
2023/12/28 10:35:51;;;;;;;12.68;2.00;;;12.20;92.30;;;;;;5003390;28;20516;-81
2023/12/28 10:38:17;;;;;;;10.65;1.40;;;12.30;92.10;;;;;;5021428;28;20014;-82
2023/12/28 10:40:45;;;;;;;13.43;1.48;;;12.30;91.90;;;;;;5004008;28;20367;-82
2023/12/28 10:43:15;;;;;;;10.18;1.60;;;12.40;92.00;;;;;;5021985;28;20017;-82
2023/12/28 10:45:43;;;;;;;11.50;1.75;;;12.50;91.80;;;;;;5001226;28;20041;-81
2023/12/28 10:48:11;;;;;;;11.27;1.80;;;12.60;91.70;;;;;;5003602;28;20256;-82
2023/12/28 10:50:46;;;;;;;15.68;1.98;;;12.60;91.20;;;;;;5003974;28;20061;-82
2023/12/28 10:53:37;;;;;;;11.32;1.65;;;12.70;91.20;;;;;;5003741;28;20056;-83
2023/12/28 10:56:29;;;;;;;12.25;1.60;;;12.70;90.80;;;;;;5019358;28;20100;-82
2023/12/28 10:59:10;;;;;;;14.38;1.83;;;12.70;90.70;;;;;;5002985;28;20114;-82
2023/12/28 11:01:39;;;;;;;15.80;1.55;;;12.80;90.60;;;;;;5003439;28;20022;-83
2023/12/28 11:04:21;;;;;;;13.40;2.03;;;12.80;90.80;;;;;;5003581;28;20462;-82
2023/12/28 11:06:49;;;;;;;10.95;1.73;;;12.90;90.60;;;;;;5000907;28;20041;-82
2023/12/28 11:09:15;;;;;;;11.80;1.90;;;12.90;90.60;;;;;;5003395;28;20080;-82
2023/12/28 11:11:43;;;;;;;12.43;1.77;;;13.00;90.30;;;;;;5003409;28;20076;-81
2023/12/28 11:14:09;;;;;;;12.80;1.95;;;13.00;89.90;;;;;;5003202;28;20034;-82
2023/12/28 11:16:37;;;;;;;14.30;1.88;;;13.00;88.90;;;;;;5002147;28;20080;-81
2023/12/28 11:19:04;;;;;;;12.18;2.58;;;13.00;88.70;;;;;;5003444;28;20014;-81
2023/12/28 11:21:31;;;;;;;18.77;2.38;;;13.00;88.50;;;;;;5002543;28;20025;-82
2023/12/28 11:23:57;;;;;;;13.88;2.83;;;13.00;88.50;;;;;;5003248;28;20554;-80
2023/12/28 11:26:23;;;;;;;20.48;2.13;;;12.90;88.90;;;;;;5003305;28;20026;-82
2023/12/28 11:28:49;;;;;;;15.13;1.98;;;12.90;88.90;;;;;;5003276;28;20084;-82
2023/12/28 11:31:16;;;;;;;15.55;2.33;;;12.90;88.90;;;;;;5003281;28;20030;-82
2023/12/28 11:33:52;;;;;;;13.45;2.92;;;12.80;89.40;;;;;;5003331;28;20025;-82
2023/12/28 11:36:25;;;;;;;15.00;2.05;;;12.80;89.50;;;;;;5019995;28;20045;-81
2023/12/28 11:38:54;;;;;;;16.57;2.40;;;12.70;89.50;;;;;;5001190;28;20505;-81
2023/12/28 11:41:20;;;;;;;17.17;2.20;;;12.80;89.20;;;;;;5003207;28;20373;-82
2023/12/28 11:43:54;;;;;;;14.32;2.10;;;12.70;89.40;;;;;;5003471;28;20034;-82
2023/12/28 11:46:21;;;;;;;;;;;12.70;89.60;;;;;;5021254;28;20030;-82
2023/12/28 11:48:46;;;;;;;18.25;2.17;;;12.70;89.10;;;;;;5003900;28;19905;-81
2023/12/28 11:51:12;;;;;;;16.40;1.92;;;12.70;89.50;;;;;;5002620;28;20033;-83
2023/12/28 11:53:39;;;;;;;14.07;2.90;;;12.70;89.70;;;;;;5003039;28;20026;-82
2023/12/28 11:56:09;;;;;;;13.75;2.22;;;12.60;89.80;;;;;;5003698;28;20018;-82
2023/12/28 11:58:35;;;;;;;14.02;3.17;;;12.60;90.00;;;;;;5003555;28;20072;-82
2023/12/28 12:01:02;;;;;;;14.68;2.17;;;12.60;89.90;;;;;;5004025;28;20106;-82
2023/12/28 12:03:29;;;;;;;15.32;2.15;;;12.50;90.00;;;;;;5003564;28;20510;-82
2023/12/28 12:05:57;;;;;;;12.60;1.92;;;12.50;90.20;;;;;;5003784;28;20025;-82
2023/12/28 12:08:23;;;;;;;19.30;2.70;;;12.50;90.20;;;;;;5004215;28;20026;-81
2023/12/28 12:10:59;;;;;;;15.68;2.05;;;12.50;90.20;;;;;;5003843;28;20034;-82
2023/12/28 12:13:25;;;;;;;18.80;2.92;;;12.50;90.30;;;;;;5003358;28;20022;-82
2023/12/28 12:15:52;;;;;;;18.83;2.60;;;12.40;90.20;;;;;;5003668;28;20117;-80
2023/12/28 12:18:18;;;;;;;14.75;2.30;;;12.40;90.30;;;;;;4998666;28;20030;-81
2023/12/28 12:20:44;;;;;;;15.90;2.00;;;12.40;90.40;;;;;;4994213;28;20018;-82
2023/12/28 12:23:11;;;;;;;10.65;2.42;;;12.30;90.40;;;;;;5005061;28;20018;-82
2023/12/28 12:29:47;;;;;;;13.77;1.90;;;12.30;90.50;;;;;;4992660;28;20088;-79
2023/12/28 12:32:14;;;;;;;17.48;2.72;;;12.30;90.50;;;;;;5003043;28;20602;-81
2023/12/28 12:34:40;;;;;;;14.18;2.67;;;12.30;90.40;;;;;;4985944;28;20073;-82
2023/12/28 12:37:05;;;;;;;13.13;1.88;;;12.30;90.50;;;;;;4988053;28;20088;-81
2023/12/28 12:39:32;;;;;;;16.45;2.45;;;12.30;90.50;;;;;;4986705;28;20481;-80
2023/12/28 12:41:58;;;;;;;18.92;2.38;;;12.30;90.50;;;;;;4987516;28;20026;-81